Time;durP1;ratioP1;P1;durP2;ratioP2;P2;SDS_P1;SDS_P2;PMS_P1;PMS_P2;Temp;Humidity;BMP_temperature;BMP_pressure;BME280_temperature;BME280_humidity;BME280_pressure;Samples;Min_cycle;Max_cycle;Signal;HPM_P1;HPM_P2
2022/05/05 00:00:02;;;;;;;;;;;;;;;;;;5041705;28;19919;-77
2022/05/05 00:02:28;;;;;;;;;;;;;;;;;;5026567;28;20430;-77
2022/05/05 00:04:54;;;;;;;;;;;;;;;;;;5018658;28;19917;-77
2022/05/05 00:07:20;;;;;;;;;;;;;;;;;;5026715;28;20359;-77
2022/05/05 00:09:46;;;;;;;;;;;;;;;;;;5022901;28;19920;-77
2022/05/05 00:14:56;;;;;;;;;;;;;;;;;;5037284;28;19920;-78
2022/05/05 00:17:23;;;;;;;;;;;;;;;;;;5043413;28;19912;-77
2022/05/05 00:19:49;;;;;;;;;;;;;;;;;;5021391;28;19925;-78
2022/05/05 00:22:15;;;;;;;;;;;;;;;;;;5022173;28;19940;-77
2022/05/05 00:24:41;;;;;;;;;;;;;;;;;;5040160;28;19917;-77
2022/05/05 00:27:07;;;;;;;;;;;;;;;;;;5022600;28;20016;-77
2022/05/05 00:29:33;;;;;;;;;;;;;;;;;;5015969;28;19994;-77
2022/05/05 00:31:59;;;;;;;;;;;;;;;;;;5040455;28;19960;-77
2022/05/05 00:34:25;;;;;;;;;;;;;;;;;;5036130;28;19917;-77
2022/05/05 00:36:51;;;;;;;;;;;;;;;;;;5022254;28;19912;-77
2022/05/05 00:39:17;;;;;;;;;;;;;;;;;;5022516;28;20436;-77
2022/05/05 00:41:43;;;;;;;;;;;;;;;;;;5037465;28;19921;-77
2022/05/05 00:44:09;;;;;;;;;;;;;;;;;;5034904;28;19917;-77
2022/05/05 00:46:35;;;;;;;;;;;;;;;;;;5024595;28;20269;-77
2022/05/05 00:49:00;;;;;;;;;;;;;;;;;;5033429;28;19975;-77
2022/05/05 00:51:26;;;;;;;;;;;;;;;;;;5036528;28;20161;-77
2022/05/05 00:53:54;;;;;;;;;;;;;;;;;;5023064;28;19913;-78
2022/05/05 00:56:20;;;;;;;;;;;;;;;;;;5016074;28;19921;-77
2022/05/05 00:58:46;;;;;;;;;;;;;;;;;;5034813;28;19928;-77
2022/05/05 01:01:12;;;;;;;;;;;;;;;;;;5034688;28;20355;-77
2022/05/05 01:03:38;;;;;;;;;;;;;;;;;;5021637;28;19994;-77
2022/05/05 01:06:04;;;;;;;;;;;;;;;;;;5016158;28;19916;-78
2022/05/05 01:08:29;;;;;;;;;;;;;;;;;;5033093;28;19932;-77
2022/05/05 01:10:55;;;;;;;;;;;;;;;;;;5034098;28;19913;-78
2022/05/05 01:13:21;;;;;;;;;;;;;;;;;;5027890;28;19975;-77
2022/05/05 01:15:47;;;;;;;;;;;;;;;;;;5036922;28;20400;-77
2022/05/05 01:18:20;;;;;;;;;;;;;;;;;;5022099;28;20327;-78
2022/05/05 01:20:45;;;;;;;;;;;;;;;;;;5033817;28;19917;-83
2022/05/05 01:23:11;;;;;;;;;;;;;;;;;;5023549;28;19917;-81
2022/05/05 01:28:22;;;;;;;;;;;;;;;;;;5016331;28;19975;-81
2022/05/05 01:30:48;;;;;;;;;;;;;;;;;;5012277;28;20008;-81
2022/05/05 01:33:14;;;;;;;;;;;;;;;;;;5000126;28;19917;-81
2022/05/05 01:35:40;;;;;;;;;;;;;;;;;;5013521;28;19924;-80
2022/05/05 01:38:06;;;;;;;;;;;;;;;;;;5011765;28;19921;-80
2022/05/05 01:40:32;;;;;;;;;;;;;;;;;;5000864;28;19948;-81
2022/05/05 01:42:58;;;;;;;;;;;;;;;;;;5015450;28;20388;-81
2022/05/05 01:45:24;;;;;;;;;;;;;;;;;;4994464;28;20122;-80
2022/05/05 01:47:50;;;;;;;;;;;;;;;;;;5016309;28;19924;-81
2022/05/05 01:50:16;;;;;;;;;;;;;;;;;;5011429;28;19917;-80
2022/05/05 01:52:42;;;;;;;;;;;;;;;;;;4999808;28;20280;-81
2022/05/05 01:55:08;;;;;;;;;;;;;;;;;;5007767;28;19917;-81
2022/05/05 01:57:34;;;;;;;;;;;;;;;;;;4995478;28;19925;-81
2022/05/05 02:00:03;;;;;;;;;;;;;;;;;;5015365;28;20358;-80
2022/05/05 02:02:29;;;;;;;;;;;;;;;;;;4995502;28;20316;-81
2022/05/05 02:04:55;;;;;;;;;;;;;;;;;;4991678;28;19929;-81
2022/05/05 02:07:21;;;;;;;;;;;;;;;;;;5013027;28;19927;-81
2022/05/05 02:09:47;;;;;;;;;;;;;;;;;;5017835;28;19925;-81
2022/05/05 02:12:13;;;;;;;;;;;;;;;;;;5012589;28;19917;-81
2022/05/05 02:14:39;;;;;;;;;;;;;;;;;;4992065;28;19928;-81
2022/05/05 02:17:05;;;;;;;;;;;;;;;;;;4999295;28;19913;-81
2022/05/05 02:19:31;;;;;;;;;;;;;;;;;;4995572;28;19964;-80
2022/05/05 02:21:57;;;;;;;;;;;;;;;;;;5011827;28;19955;-81
2022/05/05 02:24:23;;;;;;;;;;;;;;;;;;4993481;28;20154;-81
2022/05/05 02:26:49;;;;;;;;;;;;;;;;;;5013854;28;20022;-81
2022/05/05 02:29:15;;;;;;;;;;;;;;;;;;5011890;28;19964;-81
2022/05/05 02:31:40;;;;;;;;;;;;;;;;;;4999472;28;20332;-81
2022/05/05 02:34:08;;;;;;;;;;;;;;;;;;4998220;28;19948;-81
2022/05/05 02:39:19;;;;;;;;;;;;;;;;;;5015955;28;20296;-81
2022/05/05 02:41:45;;;;;;;;;;;;;;;;;;5016736;28;20012;-81
2022/05/05 02:44:11;;;;;;;;;;;;;;;;;;5011303;28;19952;-81
2022/05/05 02:46:36;;;;;;;;;;;;;;;;;;5014848;28;20020;-81
2022/05/05 02:49:02;;;;;;;;;;;;;;;;;;4998823;28;20372;-81
2022/05/05 02:51:28;;;;;;;;;;;;;;;;;;5013955;28;19996;-80
2022/05/05 02:54:55;;;;;;;;;;;;;;;;;;5018707;28;19924;-80
2022/05/05 02:56:49;;;;;;;;;;;;;;;;;;4997161;28;20412;-81
2022/05/05 02:59:15;;;;;;;;;;;;;;;;;;5002277;28;20000;-80
2022/05/05 03:01:41;;;;;;;;;;;;;;;;;;4994774;28;19917;-80
2022/05/05 03:04:07;;;;;;;;;;;;;;;;;;5012714;28;20524;-81
2022/05/05 03:06:33;;;;;;;;;;;;;;;;;;4996181;28;19918;-81
2022/05/05 03:08:59;;;;;;;;;;;;;;;;;;4999990;28;19925;-81
2022/05/05 03:11:25;;;;;;;;;;;;;;;;;;4998854;28;20288;-80
2022/05/05 03:13:51;;;;;;;;;;;;;;;;;;5013226;28;19917;-81
2022/05/05 03:16:17;;;;;;;;;;;;;;;;;;4991741;28;19924;-81
2022/05/05 03:18:42;;;;;;;;;;;;;;;;;;5001005;28;19924;-81
2022/05/05 03:21:08;;;;;;;;;;;;;;;;;;5004934;28;20007;-80
2022/05/05 03:23:34;;;;;;;;;;;;;;;;;;5019324;28;20004;-81
2022/05/05 03:26:00;;;;;;;;;;;;;;;;;;5014410;28;20314;-81
2022/05/05 03:28:26;;;;;;;;;;;;;;;;;;5005339;28;19928;-81
2022/05/05 03:30:52;;;;;;;;;;;;;;;;;;5000940;28;19925;-80
2022/05/05 03:33:18;;;;;;;;;;;;;;;;;;5023582;28;19927;-82
2022/05/05 03:35:44;;;;;;;;;;;;;;;;;;5003425;28;19916;-81
2022/05/05 03:38:10;;;;;;;;;;;;;;;;;;5024126;28;19922;-81
2022/05/05 03:40:35;;;;;;;;;;;;;;;;;;5019654;28;19913;-81
2022/05/05 03:43:01;;;;;;;;;;;;;;;;;;5021016;28;20000;-81
2022/05/05 03:45:27;;;;;;;;;;;;;;;;;;5003123;28;19976;-81
2022/05/05 03:47:54;;;;;;;;;;;;;;;;;;5024170;28;19932;-81
2022/05/05 03:50:20;;;;;;;;;;;;;;;;;;5002748;28;19917;-81
2022/05/05 03:52:47;;;;;;;;;;;;;;;;;;5022052;28;20000;-81
2022/05/05 03:55:13;;;;;;;;;;;;;;;;;;5017682;28;19913;-81
2022/05/05 03:57:39;;;;;;;;;;;;;;;;;;5012265;28;19921;-81
2022/05/05 04:00:05;;;;;;;;;;;;;;;;;;5018588;28;20542;-81
2022/05/05 04:02:31;;;;;;;;;;;;;;;;;;5021159;28;19909;-81
2022/05/05 04:04:57;;;;;;;;;;;;;;;;;;5019295;28;20138;-81
2022/05/05 04:07:22;;;;;;;;;;;;;;;;;;5020741;28;19909;-81
2022/05/05 04:09:48;;;;;;;;;;;;;;;;;;5016644;28;20012;-81
2022/05/05 04:12:14;;;;;;;;;;;;;;;;;;5016201;28;19917;-81
2022/05/05 04:14:40;;;;;;;;;;;;;;;;;;4999947;28;20314;-82
2022/05/05 04:17:06;;;;;;;;;;;;;;;;;;5005607;28;19913;-82
2022/05/05 04:19:32;;;;;;;;;;;;;;;;;;5002828;28;19918;-81
2022/05/05 04:21:58;;;;;;;;;;;;;;;;;;5001467;28;19921;-81
2022/05/05 04:24:24;;;;;;;;;;;;;;;;;;5015276;28;19921;-81
2022/05/05 04:26:50;;;;;;;;;;;;;;;;;;5017658;28;19974;-81
2022/05/05 04:29:15;;;;;;;;;;;;;;;;;;5022090;28;19921;-81
2022/05/05 04:31:41;;;;;;;;;;;;;;;;;;4999252;28;20320;-81
2022/05/05 04:34:07;;;;;;;;;;;;;;;;;;5003907;28;19917;-82
2022/05/05 04:36:35;;;;;;;;;;;;;;;;;;5000332;28;20055;-82
2022/05/05 04:39:00;;;;;;;;;;;;;;;;;;5001415;28;20377;-81
2022/05/05 04:41:26;;;;;;;;;;;;;;;;;;4997896;28;19913;-81
2022/05/05 04:43:52;;;;;;;;;;;;;;;;;;5002538;28;19981;-80
2022/05/05 04:46:18;;;;;;;;;;;;;;;;;;4999582;28;19913;-80
2022/05/05 04:48:44;;;;;;;;;;;;;;;;;;5006388;28;19925;-81
2022/05/05 04:51:10;;;;;;;;;;;;;;;;;;5021591;28;20344;-81
2022/05/05 04:53:36;;;;;;;;;;;;;;;;;;5001065;28;20070;-81
2022/05/05 04:56:02;;;;;;;;;;;;;;;;;;5004332;28;20550;-80
2022/05/05 04:58:28;;;;;;;;;;;;;;;;;;5017747;28;20384;-81
2022/05/05 05:00:54;;;;;;;;;;;;;;;;;;4998742;28;19917;-81
2022/05/05 05:03:32;;;;;;;;;;;;;;;;;;4998067;28;19917;-81
2022/05/05 05:05:58;;;;;;;;;;;;;;;;;;5004711;28;19921;-80
2022/05/05 05:08:24;;;;;;;;;;;;;;;;;;5014975;28;19917;-81
2022/05/05 05:10:50;;;;;;;;;;;;;;;;;;4999025;28;19918;-81
2022/05/05 05:13:16;;;;;;;;;;;;;;;;;;5014818;28;20369;-81
2022/05/05 05:15:42;;;;;;;;;;;;;;;;;;5015019;28;19925;-81
2022/05/05 05:18:07;;;;;;;;;;;;;;;;;;5014027;28;20010;-81
2022/05/05 05:20:33;;;;;;;;;;;;;;;;;;4999883;28;20307;-80
2022/05/05 05:22:59;;;;;;;;;;;;;;;;;;5017879;28;19995;-80
2022/05/05 05:25:25;;;;;;;;;;;;;;;;;;5025590;28;20265;-81
2022/05/05 05:27:51;;;;;;;;;;;;;;;;;;5023182;28;20403;-81
2022/05/05 05:30:17;;;;;;;;;;;;;;;;;;5020057;28;19928;-80
2022/05/05 05:32:43;;;;;;;;;;;;;;;;;;5014881;28;19913;-82
2022/05/05 05:35:09;;;;;;;;;;;;;;;;;;5040284;28;20296;-81
2022/05/05 05:37:35;;;;;;;;;;;;;;;;;;5013464;28;20051;-81
2022/05/05 05:40:01;;;;;;;;;;;;;;;;;;5021917;28;20015;-81
2022/05/05 05:42:27;;;;;;;;;;;;;;;;;;5021488;28;19912;-81
2022/05/05 05:44:53;;;;;;;;;;;;;;;;;;5034709;28;19962;-81
2022/05/05 05:47:18;;;;;;;;;;;;;;;;;;5016916;28;19971;-81
2022/05/05 05:49:44;;;;;;;;;;;;;;;;;;5018103;28;19924;-81
2022/05/05 05:52:10;;;;;;;;;;;;;;;;;;5055564;28;19923;-80
2022/05/05 05:54:36;;;;;;;;;;;;;;;;;;5055687;28;19920;-81
2022/05/05 05:57:02;;;;;;;;;;;;;;;;;;5031695;28;19967;-80
2022/05/05 05:59:28;;;;;;;;;;;;;;;;;;5045337;28;20430;-81
2022/05/05 06:04:38;;;;;;;;;;;;;;;;;;5049628;28;20379;-80
2022/05/05 06:07:04;;;;;;;;;;;;;;;;;;5055609;28;19974;-80
2022/05/05 06:09:37;;;;;;;;;;;;;;;;;;5061585;28;19924;-80
2022/05/05 06:12:03;;;;;;;;;;;;;;;;;;5033288;28;19916;-79
2022/05/05 06:14:29;;;;;;;;;;;;;;;;;;5038598;28;20057;-81
2022/05/05 06:16:55;;;;;;;;;;;;;;;;;;5056667;28;20011;-80
2022/05/05 06:19:21;;;;;;;;;;;;;;;;;;5039724;28;19927;-80
2022/05/05 06:21:47;;;;;;;;;;;;;;;;;;5059128;28;19913;-81
2022/05/05 06:24:12;;;;;;;;;;;;;;;;;;5041087;28;19940;-80
2022/05/05 06:26:38;;;;;;;;;;;;;;;;;;5037805;28;19926;-81
2022/05/05 06:29:04;;;;;;;;;;;;;;;;;;5033062;28;20003;-80
2022/05/05 06:31:30;;;;;;;;;;;;;;;;;;5012260;28;20357;-80
2022/05/05 06:33:56;;;;;;;;;;;;;;;;;;5033097;28;19913;-81
2022/05/05 06:36:23;;;;;;;;;;;;;;;;;;5033968;28;19939;-80
2022/05/05 06:38:49;;;;;;;;;;;;;;;;;;5038079;28;20740;-81
2022/05/05 06:41:17;;;;;;;;;;;;;;;;;;5033995;28;19917;-80
2022/05/05 06:43:43;;;;;;;;;;;;;;;;;;5031432;28;19920;-80
2022/05/05 06:46:09;;;;;;;;;;;;;;;;;;5036036;28;19917;-80
2022/05/05 06:48:35;;;;;;;;;;;;;;;;;;5036627;28;19935;-80
2022/05/05 06:51:01;;;;;;;;;;;;;;;;;;5032877;28;19916;-80
2022/05/05 06:53:27;;;;;;;;;;;;;;;;;;5036134;28;20310;-80
2022/05/05 06:55:55;;;;;;;;;;;;;;;;;;5032014;28;19917;-80
2022/05/05 06:58:21;;;;;;;;;;;;;;;;;;5030636;28;20447;-80
2022/05/05 07:03:32;;;;;;;;;;;;;;;;;;5034115;28;20470;-80
2022/05/05 07:05:58;;;;;;;;;;;;;;;;;;5037246;28;19917;-81
2022/05/05 07:08:24;;;;;;;;;;;;;;;;;;5036694;28;19984;-81
2022/05/05 07:10:53;;;;;;;;;;;;;;;;;;5033340;28;19921;-80
2022/05/05 07:13:19;;;;;;;;;;;;;;;;;;5038387;28;19992;-81
2022/05/05 07:15:45;;;;;;;;;;;;;;;;;;5019695;28;20019;-80
2022/05/05 07:18:11;;;;;;;;;;;;;;;;;;5019252;28;20212;-81
2022/05/05 07:20:36;;;;;;;;;;;;;;;;;;5018948;28;19929;-80
2022/05/05 07:23:04;;;;;;;;;;;;;;;;;;5022208;28;19920;-81
2022/05/05 07:25:30;;;;;;;;;;;;;;;;;;5034377;28;20407;-80
2022/05/05 07:27:57;;;;;;;;;;;;;;;;;;5025448;28;19924;-81
2022/05/05 07:30:24;;;;;;;;;;;;;;;;;;5014763;28;19925;-80
2022/05/05 07:32:49;;;;;;;;;;;;;;;;;;5029924;28;19943;-80
2022/05/05 07:35:17;;;;;;;;;;;;;;;;;;5014933;28;19995;-80
2022/05/05 07:37:44;;;;;;;;;;;;;;;;;;5030266;28;20289;-81
2022/05/05 07:40:10;;;;;;;;;;;;;;;;;;5012889;28;20291;-80
2022/05/05 07:42:37;;;;;;;;;;;;;;;;;;5022450;28;19960;-81
2022/05/05 07:45:03;;;;;;;;;;;;;;;;;;5015560;28;19920;-79
2022/05/05 07:47:29;;;;;;;;;;;;;;;;;;5032698;28;19917;-80
2022/05/05 07:49:55;;;;;;;;;;;;;;;;;;5015775;28;19951;-80
2022/05/05 07:52:21;;;;;;;;;;;;;;;;;;5014504;28;19953;-82
2022/05/05 07:54:47;;;;;;;;;;;;;;;;;;5014421;28;19917;-81
2022/05/05 07:57:13;;;;;;;;;;;;;;;;;;5027655;28;20368;-81
2022/05/05 07:59:39;;;;;;;;;;;;;;;;;;5015126;28;20034;-81
2022/05/05 08:02:08;;;;;;;;;;;;;;;;;;5012567;28;19921;-81
2022/05/05 08:04:34;;;;;;;;;;;;;;;;;;5029706;28;20203;-81
2022/05/05 08:07:00;;;;;;;;;;;;;;;;;;5017027;28;20433;-81
2022/05/05 08:09:26;;;;;;;;;;;;;;;;;;5037840;28;19921;-80
2022/05/05 08:11:52;;;;;;;;;;;;;;;;;;5020579;28;19917;-81
2022/05/05 08:14:18;;;;;;;;;;;;;;;;;;5018778;28;19921;-81
2022/05/05 08:16:44;;;;;;;;;;;;;;;;;;5016184;28;19916;-80
2022/05/05 08:19:10;;;;;;;;;;;;;;;;;;5018729;28;20388;-80
2022/05/05 08:21:36;;;;;;;;;;;;;;;;;;5021136;28;19917;-80
2022/05/05 08:29:35;;;;;;;;;;;;;;;;;;5034480;28;19982;-80
2022/05/05 08:32:00;;;;;;;;;;;;;;;;;;4995516;28;19929;-81
2022/05/05 08:34:26;;;;;;;;;;;;;;;;;;5011890;28;19936;-81
2022/05/05 08:36:52;;;;;;;;;;;;;;;;;;4991265;28;20308;-80
2022/05/05 08:39:18;;;;;;;;;;;;;;;;;;4995942;28;19925;-81
2022/05/05 08:41:44;;;;;;;;;;;;;;;;;;5016080;28;20066;-80
2022/05/05 08:44:10;;;;;;;;;;;;;;;;;;5017074;28;19929;-80
2022/05/05 08:46:36;;;;;;;;;;;;;;;;;;4993122;28;20075;-80
2022/05/05 08:49:03;;;;;;;;;;;;;;;;;;5000471;28;20019;-80
2022/05/05 08:51:28;;;;;;;;;;;;;;;;;;4996086;28;19918;-80
2022/05/05 08:53:54;;;;;;;;;;;;;;;;;;5013144;28;19967;-82
2022/05/05 08:56:20;;;;;;;;;;;;;;;;;;5010389;28;19922;-81
2022/05/05 08:58:46;;;;;;;;;;;;;;;;;;5013180;28;19956;-81
2022/05/05 09:01:13;;;;;;;;;;;;;;;;;;5002263;28;20008;-80
2022/05/05 09:03:38;;;;;;;;;;;;;;;;;;4992797;28;20048;-80
2022/05/05 09:06:04;;;;;;;;;;;;;;;;;;5012162;28;20233;-80
2022/05/05 09:08:31;;;;;;;;;;;;;;;;;;5018272;28;19922;-80
2022/05/05 09:10:56;;;;;;;;;;;;;;;;;;5000758;28;19917;-81
2022/05/05 09:13:22;;;;;;;;;;;;;;;;;;5014193;28;19921;-80
2022/05/05 09:15:48;;;;;;;;;;;;;;;;;;5014761;28;19922;-81
2022/05/05 09:18:14;;;;;;;;;;;;;;;;;;5016040;28;19913;-80
2022/05/05 09:20:41;;;;;;;;;;;;;;;;;;4996018;28;19927;-81
2022/05/05 09:23:06;;;;;;;;;;;;;;;;;;5017294;28;19921;-81
2022/05/05 09:25:33;;;;;;;;;;;;;;;;;;4997825;28;19947;-80
2022/05/05 09:27:58;;;;;;;;;;;;;;;;;;5012584;28;20280;-80
2022/05/05 09:30:24;;;;;;;;;;;;;;;;;;4997028;28;20039;-80
2022/05/05 09:32:50;;;;;;;;;;;;;;;;;;5003241;28;19921;-81
2022/05/05 09:35:16;;;;;;;;;;;;;;;;;;5017122;28;19924;-81
2022/05/05 09:37:42;;;;;;;;;;;;;;;;;;4999989;28;19913;-81
2022/05/05 09:40:08;;;;;;;;;;;;;;;;;;5021532;28;19909;-81
2022/05/05 09:42:34;;;;;;;;;;;;;;;;;;5021430;28;19920;-81
2022/05/05 09:45:00;;;;;;;;;;;;;;;;;;5000962;28;19924;-81
2022/05/05 09:47:29;;;;;;;;;;;;;;;;;;5022536;28;20341;-81
2022/05/05 09:49:55;;;;;;;;;;;;;;;;;;5009586;28;20316;-81
2022/05/05 09:57:52;;;;;;;;;;;;;;;;;;5013464;28;20323;-82
2022/05/05 10:05:41;;;;;;;;;;;;;;;;;;5017580;28;20036;-82
2022/05/05 10:08:06;;;;;;;;;;;;;;;;;;5020350;28;20051;-82
2022/05/05 10:10:32;;;;;;;;;;;;;;;;;;5000693;28;20398;-82
2022/05/05 10:12:59;;;;;;;;;;;;;;;;;;5006257;28;19955;-81
2022/05/05 10:15:25;;;;;;;;;;;;;;;;;;4999613;28;20012;-81
2022/05/05 10:17:51;;;;;;;;;;;;;;;;;;5016694;28;19917;-82
2022/05/05 10:20:17;;;;;;;;;;;;;;;;;;5016770;28;19913;-81
2022/05/05 10:22:42;;;;;;;;;;;;;;;;;;5016907;28;20320;-82
2022/05/05 10:25:08;;;;;;;;;;;;;;;;;;4998785;28;20016;-82
2022/05/05 10:27:34;;;;;;;;;;;;;;;;;;5023449;28;19960;-82
2022/05/05 10:30:00;;;;;;;;;;;;;;;;;;5014971;28;20347;-81
2022/05/05 10:32:28;;;;;;;;;;;;;;;;;;5014984;28;19941;-81
2022/05/05 10:34:54;;;;;;;;;;;;;;;;;;4996724;28;20036;-81
2022/05/05 10:37:20;;;;;;;;;;;;;;;;;;5015648;28;19918;-82
2022/05/05 10:39:47;;;;;;;;;;;;;;;;;;5015870;28;20381;-81
2022/05/05 10:42:15;;;;;;;;;;;;;;;;;;5011033;28;19917;-81
2022/05/05 10:44:41;;;;;;;;;;;;;;;;;;5017493;28;21293;-82
2022/05/05 10:47:07;;;;;;;;;;;;;;;;;;4992839;28;19922;-81
2022/05/05 10:49:34;;;;;;;;;;;;;;;;;;4993037;28;19936;-80
2022/05/05 10:52:00;;;;;;;;;;;;;;;;;;4998405;28;19917;-81
2022/05/05 10:54:26;;;;;;;;;;;;;;;;;;4995096;28;19921;-80
2022/05/05 10:56:53;;;;;;;;;;;;;;;;;;4997506;28;20363;-79
2022/05/05 10:59:19;;;;;;;;;;;;;;;;;;4997312;28;20262;-78
2022/05/05 11:01:45;;;;;;;;;;;;;;;;;;4996293;28;20435;-78
2022/05/05 11:04:13;;;;;;;;;;;;;;;;;;4999157;28;19921;-78
2022/05/05 11:06:40;;;;;;;;;;;;;;;;;;4999096;28;19921;-78
2022/05/05 11:09:06;;;;;;;;;;;;;;;;;;5015246;28;19925;-78
2022/05/05 11:11:45;;;;;;;;;;;;;;;;;;5010921;28;20333;-78
2022/05/05 11:21:31;;;;;;;;;;;;;;;;;;4991873;28;20297;-78
2022/05/05 11:22:26;;;;;;;;;;;;;;;;;;5014989;28;21086;-78
2022/05/05 11:24:52;;;;;;;;;;;;;;;;;;5009139;28;19917;-79
2022/05/05 11:27:18;;;;;;;;;;;;;;;;;;5013543;28;19925;-79
2022/05/05 11:29:45;;;;;;;;;;;;;;;;;;4999364;28;19928;-78
2022/05/05 11:32:11;;;;;;;;;;;;;;;;;;5011461;28;19924;-78
2022/05/05 11:34:37;;;;;;;;;;;;;;;;;;4990934;28;20107;-78
2022/05/05 11:37:03;;;;;;;;;;;;;;;;;;4993693;28;20123;-78
2022/05/05 11:39:29;;;;;;;;;;;;;;;;;;4993231;28;20283;-79
2022/05/05 11:41:55;;;;;;;;;;;;;;;;;;4992858;28;19944;-78
2022/05/05 11:44:21;;;;;;;;;;;;;;;;;;5001653;28;20141;-79
2022/05/05 11:46:47;;;;;;;;;;;;;;;;;;4996091;28;19936;-78
2022/05/05 11:49:13;;;;;;;;;;;;;;;;;;5002615;28;20015;-79
2022/05/05 11:51:39;;;;;;;;;;;;;;;;;;5017475;28;20348;-79
2022/05/05 11:54:05;;;;;;;;;;;;;;;;;;5019220;28;19913;-79
2022/05/05 11:56:31;;;;;;;;;;;;;;;;;;5016049;28;19917;-78
2022/05/05 12:01:42;;;;;;;;;;;;;;;;;;5016335;28;19924;-78
2022/05/05 12:04:12;;;;;;;;;;;;;;;;;;5021614;28;19960;-79
2022/05/05 12:06:39;;;;;;;;;;;;;;;;;;5015918;28;20215;-78
2022/05/05 12:09:05;;;;;;;;;;;;;;;;;;5001889;28;19921;-78
2022/05/05 12:11:38;;;;;;;;;;;;;;;;;;4991919;28;20324;-78
2022/05/05 12:14:06;;;;;;;;;;;;;;;;;;5015972;28;20343;-78
2022/05/05 12:16:32;;;;;;;;;;;;;;;;;;4993660;28;19924;-78
2022/05/05 12:18:59;;;;;;;;;;;;;;;;;;4996964;28;19917;-78
2022/05/05 12:21:25;;;;;;;;;;;;;;;;;;5000155;28;19921;-78
2022/05/05 12:23:51;;;;;;;;;;;;;;;;;;5013622;28;20012;-78
2022/05/05 12:26:17;;;;;;;;;;;;;;;;;;5006355;28;19920;-78
2022/05/05 12:28:43;;;;;;;;;;;;;;;;;;5000126;28;19917;-78
2022/05/05 12:31:10;;;;;;;;;;;;;;;;;;5000675;28;20297;-78
2022/05/05 12:33:37;;;;;;;;;;;;;;;;;;5000553;28;19921;-79
2022/05/05 12:36:03;;;;;;;;;;;;;;;;;;4995687;28;19920;-78
2022/05/05 12:38:29;;;;;;;;;;;;;;;;;;4993824;28;20396;-78
2022/05/05 12:40:55;;;;;;;;;;;;;;;;;;4993945;28;19918;-79
2022/05/05 12:43:21;;;;;;;;;;;;;;;;;;5010050;28;19917;-79
2022/05/05 12:45:47;;;;;;;;;;;;;;;;;;4997136;28;19917;-79
2022/05/05 12:48:13;;;;;;;;;;;;;;;;;;5010357;28;19960;-79
2022/05/05 12:50:40;;;;;;;;;;;;;;;;;;4991921;28;19917;-78
2022/05/05 13:01:20;;;;;;;;;;;;;;;;;;5010386;28;19924;-78
2022/05/05 13:03:47;;;;;;;;;;;;;;;;;;4991908;28;19913;-78
2022/05/05 13:06:13;;;;;;;;;;;;;;;;;;4998495;28;20398;-78
2022/05/05 13:08:38;;;;;;;;;;;;;;;;;;5011846;28;20031;-78
2022/05/05 13:11:04;;;;;;;;;;;;;;;;;;5013142;28;19961;-79
2022/05/05 13:13:30;;;;;;;;;;;;;;;;;;5013540;28;19918;-79
2022/05/05 13:15:56;;;;;;;;;;;;;;;;;;4999003;28;20023;-79
2022/05/05 13:18:22;;;;;;;;;;;;;;;;;;4994598;28;19918;-79
2022/05/05 13:20:48;;;;;;;;;;;;;;;;;;4995769;28;19920;-79
2022/05/05 13:23:17;;;;;;;;;;;;;;;;;;4994504;28;19991;-79
2022/05/05 13:25:43;;;;;;;;;;;;;;;;;;5009955;28;19921;-79
2022/05/05 13:28:09;;;;;;;;;;;;;;;;;;5014956;28;19955;-79
2022/05/05 13:30:35;;;;;;;;;;;;;;;;;;4994192;28;20016;-79
2022/05/05 13:33:02;;;;;;;;;;;;;;;;;;5000941;28;20329;-79
2022/05/05 13:35:28;;;;;;;;;;;;;;;;;;5015192;28;19921;-79
2022/05/05 13:37:58;;;;;;;;;;;;;;;;;;5020802;28;20364;-79
2022/05/05 13:40:24;;;;;;;;;;;;;;;;;;5039369;28;19944;-79
2022/05/05 13:42:50;;;;;;;;;;;;;;;;;;5012425;28;20380;-79
2022/05/05 13:45:16;;;;;;;;;;;;;;;;;;5037472;28;19970;-79
2022/05/05 13:47:42;;;;;;;;;;;;;;;;;;5035559;28;19983;-79
2022/05/05 13:50:08;;;;;;;;;;;;;;;;;;5026615;28;19921;-79
2022/05/05 13:52:34;;;;;;;;;;;;;;;;;;5028428;28;20371;-79
2022/05/05 13:55:01;;;;;;;;;;;;;;;;;;5030851;28;20011;-79
2022/05/05 13:57:28;;;;;;;;;;;;;;;;;;5020224;28;20316;-79
2022/05/05 13:59:53;;;;;;;;;;;;;;;;;;5052650;28;19996;-79
2022/05/05 14:02:20;;;;;;;;;;;;;;;;;;5038696;28;20011;-78
2022/05/05 14:04:46;;;;;;;;;;;;;;;;;;5059502;28;20287;-79
2022/05/05 14:07:12;;;;;;;;;;;;;;;;;;5038854;28;20254;-79
2022/05/05 14:12:22;;;;;;;;;;;;;;;;;;5054336;28;20444;-79
2022/05/05 14:14:48;;;;;;;;;;;;;;;;;;5051263;28;19999;-79
2022/05/05 14:17:15;;;;;;;;;;;;;;;;;;5053798;28;19918;-79
2022/05/05 14:19:41;;;;;;;;;;;;;;;;;;5055944;28;19927;-79
2022/05/05 14:22:07;;;;;;;;;;;;;;;;;;5035873;28;19947;-79
2022/05/05 14:24:33;;;;;;;;;;;;;;;;;;5055719;28;19920;-79
2022/05/05 14:26:59;;;;;;;;;;;;;;;;;;5055908;28;20011;-79
2022/05/05 14:29:25;;;;;;;;;;;;;;;;;;5057159;28;20431;-79
2022/05/05 14:31:51;;;;;;;;;;;;;;;;;;5052496;28;19980;-79
2022/05/05 14:34:17;;;;;;;;;;;;;;;;;;5035148;28;20019;-79
2022/05/05 14:36:43;;;;;;;;;;;;;;;;;;5034182;28;19912;-79
2022/05/05 14:39:09;;;;;;;;;;;;;;;;;;5050593;28;20567;-78
2022/05/05 14:41:35;;;;;;;;;;;;;;;;;;5036181;28;19913;-79
2022/05/05 14:44:04;;;;;;;;;;;;;;;;;;5052237;28;19973;-79
2022/05/05 14:46:31;;;;;;;;;;;;;;;;;;5031514;28;20422;-79
2022/05/05 14:48:56;;;;;;;;;;;;;;;;;;5043780;28;20379;-79
2022/05/05 14:51:22;;;;;;;;;;;;;;;;;;5042796;28;19919;-79
2022/05/05 14:53:48;;;;;;;;;;;;;;;;;;5049375;28;19921;-79
2022/05/05 14:56:14;;;;;;;;;;;;;;;;;;5043954;28;19944;-79
2022/05/05 14:58:40;;;;;;;;;;;;;;;;;;5036319;28;22612;-79
2022/05/05 15:01:06;;;;;;;;;;;;;;;;;;5047765;28;20190;-79
2022/05/05 15:03:32;;;;;;;;;;;;;;;;;;5052321;28;19928;-78
2022/05/05 15:06:01;;;;;;;;;;;;;;;;;;5056425;28;20007;-79
2022/05/05 15:08:27;;;;;;;;;;;;;;;;;;5038780;28;19916;-78
2022/05/05 15:10:53;;;;;;;;;;;;;;;;;;5037828;28;19963;-78
2022/05/05 15:13:19;;;;;;;;;;;;;;;;;;5050644;28;19917;-78
2022/05/05 15:15:45;;;;;;;;;;;;;;;;;;5055917;28;19912;-78
2022/05/05 15:18:11;;;;;;;;;;;;;;;;;;5054441;28;20019;-78
2022/05/05 15:20:37;;;;;;;;;;;;;;;;;;5042632;28;20789;-79
2022/05/05 15:23:03;;;;;;;;;;;;;;;;;;5049153;28;19916;-79
2022/05/05 15:25:29;;;;;;;;;;;;;;;;;;5057551;28;19921;-79
2022/05/05 15:27:55;;;;;;;;;;;;;;;;;;5041504;28;19928;-78
2022/05/05 15:30:20;;;;;;;;;;;;;;;;;;5048891;28;20015;-79
2022/05/05 15:32:46;;;;;;;;;;;;;;;;;;5054388;28;19916;-79
2022/05/05 15:35:12;;;;;;;;;;;;;;;;;;5042569;28;20334;-79
2022/05/05 15:37:38;;;;;;;;;;;;;;;;;;5033956;28;19943;-78
2022/05/05 15:40:04;;;;;;;;;;;;;;;;;;5043760;28;19935;-78
2022/05/05 15:42:30;;;;;;;;;;;;;;;;;;5034167;28;19921;-78
2022/05/05 15:44:56;;;;;;;;;;;;;;;;;;5039966;28;19928;-78
2022/05/05 15:47:22;;;;;;;;;;;;;;;;;;5036134;28;19921;-78
2022/05/05 15:49:48;;;;;;;;;;;;;;;;;;5037842;28;20357;-78
2022/05/05 15:52:14;;;;;;;;;;;;;;;;;;5040939;28;20365;-78
2022/05/05 15:54:40;;;;;;;;;;;;;;;;;;5021020;28;19960;-78
2022/05/05 15:57:07;;;;;;;;;;;;;;;;;;5039871;28;19952;-78
2022/05/05 15:59:38;;;;;;;;;;;;;;;;;;5017516;28;19970;-78
2022/05/05 16:02:04;;;;;;;;;;;;;;;;;;5036378;28;19924;-78
2022/05/05 16:04:30;;;;;;;;;;;;;;;;;;5014657;28;20304;-80
2022/05/05 16:06:56;;;;;;;;;;;;;;;;;;5033900;28;19917;-81
2022/05/05 16:09:22;;;;;;;;;;;;;;;;;;5032179;28;19921;-80
2022/05/05 16:11:48;;;;;;;;;;;;;;;;;;5038749;28;19917;-83
2022/05/05 16:14:14;;;;;;;;;;;;;;;;;;5025579;28;20020;-79
2022/05/05 16:16:40;;;;;;;;;;;;;;;;;;5024949;28;19917;-79
2022/05/05 16:19:06;;;;;;;;;;;;;;;;;;5023058;28;20326;-79
2022/05/05 16:21:32;;;;;;;;;;;;;;;;;;5038896;28;19920;-80
2022/05/05 16:23:58;;;;;;;;;;;;;;;;;;5041533;28;19916;-79
2022/05/05 16:31:54;;;;;;;;;;;;;;;;;;5035784;28;20405;-80
2022/05/05 16:34:20;;;;;;;;;;;;;;;;;;5028668;28;20436;-80
2022/05/05 16:36:46;;;;;;;;;;;;;;;;;;5032867;28;19924;-80
2022/05/05 16:39:12;;;;;;;;;;;;;;;;;;5037300;28;19978;-80
2022/05/05 16:41:38;;;;;;;;;;;;;;;;;;5054155;28;19927;-80
2022/05/05 16:44:05;;;;;;;;;;;;;;;;;;5042632;28;19917;-80
2022/05/05 16:46:31;;;;;;;;;;;;;;;;;;5035427;28;19920;-80
2022/05/05 16:48:57;;;;;;;;;;;;;;;;;;5059182;28;19935;-80
2022/05/05 16:51:23;;;;;;;;;;;;;;;;;;5060052;28;20368;-80
2022/05/05 16:53:49;;;;;;;;;;;;;;;;;;5049015;28;20007;-80
2022/05/05 16:56:15;;;;;;;;;;;;;;;;;;5057470;28;19928;-80
2022/05/05 16:58:41;;;;;;;;;;;;;;;;;;5055505;28;19916;-80
2022/05/05 17:01:09;;;;;;;;;;;;;;;;;;5044603;28;20406;-79
2022/05/05 17:03:34;;;;;;;;;;;;;;;;;;5039929;28;19912;-80
2022/05/05 17:06:00;;;;;;;;;;;;;;;;;;5042436;28;19917;-79
2022/05/05 17:08:27;;;;;;;;;;;;;;;;;;5056332;28;20005;-79
2022/05/05 17:10:53;;;;;;;;;;;;;;;;;;5041415;28;20053;-79
2022/05/05 17:13:19;;;;;;;;;;;;;;;;;;5039107;28;20439;-79
2022/05/05 17:15:45;;;;;;;;;;;;;;;;;;5040904;28;19920;-79
2022/05/05 17:18:10;;;;;;;;;;;;;;;;;;5041768;28;20411;-80
2022/05/05 17:20:36;;;;;;;;;;;;;;;;;;5055074;28;19994;-80
2022/05/05 17:23:02;;;;;;;;;;;;;;;;;;5044796;28;20263;-79
2022/05/05 17:25:28;;;;;;;;;;;;;;;;;;5037720;28;19923;-79
2022/05/05 17:27:54;;;;;;;;;;;;;;;;;;5059648;28;20295;-79
2022/05/05 17:30:21;;;;;;;;;;;;;;;;;;5036370;28;20280;-79
2022/05/05 17:32:46;;;;;;;;;;;;;;;;;;5040933;28;19924;-80